Time;durP1;ratioP1;P1;durP2;ratioP2;P2;SDS_P1;SDS_P2;PMS_P1;PMS_P2;Temp;Humidity;BMP_temperature;BMP_pressure;BME280_temperature;BME280_humidity;BME280_pressure;Samples;Min_cycle;Max_cycle;Signal;HPM_P1;HPM_P2
2022/12/06 00:01:25;;;;;;;16.95;2.45;;;13.30;99.90;;;;;;5032034;28;20041;-80
2022/12/06 00:03:54;;;;;;;21.25;2.88;;;13.30;99.90;;;;;;5032040;28;20033;-80
2022/12/06 00:06:23;;;;;;;16.13;2.67;;;13.40;99.90;;;;;;5032221;28;20108;-80
2022/12/06 00:08:51;;;;;;;28.23;3.42;;;13.40;99.90;;;;;;5032154;28;20033;-80
2022/12/06 00:11:21;;;;;;;22.35;3.40;;;13.50;99.90;;;;;;5031375;28;20079;-80
2022/12/06 00:13:51;;;;;;;19.98;3.05;;;13.50;99.90;;;;;;5031680;28;20021;-80
2022/12/06 00:16:17;;;;;;;18.98;3.13;;;13.60;99.90;;;;;;5031516;28;20501;-80
2022/12/06 00:18:44;;;;;;;20.55;3.47;;;13.60;99.90;;;;;;5032119;28;20033;-80
2022/12/06 00:21:32;;;;;;;15.85;3.08;;;13.60;99.90;;;;;;5031676;28;20036;-80
2022/12/06 00:24:01;;;;;;;20.52;2.40;;;13.60;99.90;;;;;;5032091;28;20378;-80
2022/12/06 00:26:28;;;;;;;21.20;2.97;;;13.70;99.90;;;;;;5031706;28;20026;-79
2022/12/06 00:28:57;;;;;;;17.48;3.05;;;13.80;99.90;;;;;;5031421;28;20398;-80
2022/12/06 00:31:25;;;;;;;20.40;3.25;;;13.80;99.90;;;;;;5031409;28;20025;-80
2022/12/06 00:33:51;;;;;;;21.10;2.72;;;13.80;99.90;;;;;;5031867;28;20025;-80
2022/12/06 00:36:27;;;;;;;19.60;2.58;;;13.80;99.90;;;;;;5031616;28;20041;-79
2022/12/06 00:38:55;;;;;;;14.75;2.58;;;13.80;99.90;;;;;;5031817;28;20025;-79
2022/12/06 00:41:23;;;;;;;23.70;2.50;;;13.80;99.90;;;;;;5031697;28;20384;-79
2022/12/06 00:43:51;;;;;;;21.50;2.80;;;13.70;99.90;;;;;;5031926;28;20021;-79
2022/12/06 00:46:23;;;;;;;18.23;2.80;;;13.70;99.90;;;;;;5031372;28;20207;-80
2022/12/06 00:48:51;;;;;;;19.63;2.63;;;13.60;99.90;;;;;;5030367;28;20504;-75
2022/12/06 00:51:19;;;;;;;14.85;2.70;;;13.60;99.90;;;;;;5031180;28;20446;-78
2022/12/06 00:53:45;;;;;;;19.33;2.72;;;13.60;99.90;;;;;;5031362;28;20311;-79
2022/12/06 00:56:12;;;;;;;18.13;2.83;;;13.60;99.90;;;;;;5031165;28;20028;-79
2022/12/06 00:58:38;;;;;;;;;;;13.50;99.90;;;;;;5031448;28;20025;-79
2022/12/06 01:01:10;;;;;;;23.17;3.00;;;13.50;99.90;;;;;;5029563;28;19909;-79
2022/12/06 01:03:36;;;;;;;18.98;2.70;;;13.50;99.90;;;;;;5030989;28;20029;-78
2022/12/06 01:06:14;;;;;;;28.00;5.85;;;13.40;99.90;;;;;;5031403;28;20358;-79
2022/12/06 01:08:42;;;;;;;18.17;2.60;;;13.40;99.90;;;;;;5031038;28;20037;-78
2022/12/06 01:11:12;;;;;;;17.92;2.47;;;13.30;99.90;;;;;;5030907;28;20021;-78
2022/12/06 01:13:38;;;;;;;20.85;2.67;;;13.20;99.90;;;;;;5030909;28;20026;-79
2022/12/06 01:16:25;;;;;;;18.70;2.50;;;13.10;99.90;;;;;;5030868;28;20045;-79
2022/12/06 01:18:54;;;;;;;19.90;2.42;;;13.10;99.90;;;;;;5031022;28;20037;-79
2022/12/06 01:21:21;;;;;;;17.52;2.35;;;13.10;99.90;;;;;;5030846;28;20022;-79
2022/12/06 01:23:48;;;;;;;18.00;2.33;;;13.00;99.90;;;;;;5031046;28;20077;-79
2022/12/06 01:26:29;;;;;;;26.23;4.38;;;13.00;99.90;;;;;;5031020;28;20032;-80
2022/12/06 01:28:57;;;;;;;13.43;3.47;;;13.10;99.90;;;;;;5031098;28;20046;-81
2022/12/06 01:31:23;;;;;;;21.88;3.72;;;13.10;99.90;;;;;;5030842;28;20076;-80
2022/12/06 01:33:49;;;;;;;13.37;2.33;;;13.00;99.90;;;;;;5029454;28;20021;-79
2022/12/06 01:36:21;;;;;;;13.68;2.20;;;13.00;99.90;;;;;;5030719;28;20021;-79
2022/12/06 01:38:49;;;;;;;17.83;2.90;;;13.00;99.90;;;;;;5032906;28;20465;-79
2022/12/06 01:41:15;;;;;;;14.70;2.50;;;13.00;99.90;;;;;;5032917;28;20026;-79
2022/12/06 01:43:43;;;;;;;12.43;2.13;;;12.90;99.90;;;;;;5034390;28;20037;-79
2022/12/06 01:46:12;;;;;;;15.73;2.50;;;12.80;99.90;;;;;;5034544;28;20039;-79
2022/12/06 01:48:39;;;;;;;18.23;3.40;;;12.80;99.90;;;;;;5032970;28;20043;-79
2022/12/06 01:51:08;;;;;;;13.98;2.30;;;12.80;99.90;;;;;;5034346;28;20100;-78
2022/12/06 01:53:35;;;;;;;19.08;2.22;;;12.80;99.90;;;;;;5034348;28;20026;-79
2022/12/06 01:56:02;;;;;;;18.77;2.63;;;12.70;99.90;;;;;;5034124;28;20046;-79
2022/12/06 01:58:35;;;;;;;17.52;2.72;;;12.70;99.90;;;;;;5034399;28;20410;-79
2022/12/06 02:01:01;;;;;;;17.58;2.30;;;12.80;99.90;;;;;;5034976;28;20064;-80
2022/12/06 02:03:30;;;;;;;15.45;2.38;;;12.80;99.90;;;;;;5034693;28;20160;-79
2022/12/06 02:05:58;;;;;;;24.80;2.80;;;12.80;99.90;;;;;;5034332;28;20030;-79
2022/12/06 02:08:26;;;;;;;20.23;3.22;;;12.90;99.90;;;;;;5034148;28;20017;-79
2022/12/06 02:10:54;;;;;;;13.52;2.33;;;12.90;99.90;;;;;;5034197;28;20029;-79
2022/12/06 02:13:21;;;;;;;23.48;2.20;;;12.90;99.90;;;;;;5032276;28;20067;-79
2022/12/06 02:16:14;;;;;;;23.88;2.58;;;12.90;99.90;;;;;;5033912;28;20049;-79
2022/12/06 02:18:59;;;;;;;15.95;2.65;;;12.90;99.90;;;;;;5034106;28;20052;-79
2022/12/06 02:21:40;;;;;;;16.83;2.97;;;12.90;99.90;;;;;;5034013;28;20029;-79
2022/12/06 02:24:24;;;;;;;24.52;2.58;;;12.90;99.90;;;;;;5034168;28;20025;-79
2022/12/06 02:27:02;;;;;;;17.77;2.47;;;12.90;99.90;;;;;;5033952;28;20324;-80
2022/12/06 02:29:41;;;;;;;21.02;2.88;;;13.10;99.90;;;;;;5033882;28;20082;-80
2022/12/06 02:32:24;;;;;;;15.73;2.10;;;13.10;99.90;;;;;;5033325;28;20056;-80
2022/12/06 02:34:56;;;;;;;16.67;2.72;;;13.10;99.90;;;;;;5033745;28;20374;-80
2022/12/06 02:37:44;;;;;;;13.63;2.38;;;13.10;99.90;;;;;;5033782;28;20508;-80
2022/12/06 02:40:18;;;;;;;19.80;3.08;;;13.10;99.90;;;;;;5033377;28;20120;-79
2022/12/06 02:43:18;;;;;;;12.23;2.55;;;13.10;99.90;;;;;;5033132;28;20038;-80
2022/12/06 02:45:50;;;;;;;19.02;2.83;;;13.00;99.90;;;;;;5033473;28;20386;-79
2022/12/06 02:48:18;;;;;;;16.77;2.42;;;12.90;99.90;;;;;;5033207;28;20032;-79
2022/12/06 02:50:57;;;;;;;15.13;2.97;;;12.90;99.90;;;;;;5032994;28;20041;-79
2022/12/06 02:53:27;;;;;;;17.58;2.78;;;13.00;99.90;;;;;;5033155;28;20083;-79
2022/12/06 02:55:55;;;;;;;14.55;2.85;;;13.00;99.90;;;;;;5033817;28;20024;-80
2022/12/06 02:58:21;;;;;;;19.95;2.90;;;13.00;99.90;;;;;;5033090;28;20037;-80
2022/12/06 03:01:00;;;;;;;19.53;2.77;;;13.00;99.90;;;;;;5031479;28;20028;-79
2022/12/06 03:03:44;;;;;;;27.17;4.68;;;13.00;99.90;;;;;;5033174;28;20116;-80
2022/12/06 03:06:50;;;;;;;18.17;3.00;;;13.10;99.90;;;;;;5033341;28;20440;-80
2022/12/06 03:09:40;;;;;;;14.50;3.45;;;13.10;99.90;;;;;;5033093;28;20064;-79
2022/12/06 03:12:27;;;;;;;19.00;3.00;;;13.00;99.90;;;;;;5033886;28;20072;-78
2022/12/06 03:15:12;;;;;;;18.70;3.28;;;12.90;99.90;;;;;;5032743;28;20054;-80
2022/12/06 03:17:57;;;;;;;23.50;3.10;;;12.80;99.90;;;;;;5031157;28;20021;-80
2022/12/06 03:20:31;;;;;;;24.60;3.80;;;12.90;99.90;;;;;;5032827;28;20467;-79
2022/12/06 03:23:03;;;;;;;22.75;2.92;;;12.90;99.90;;;;;;5032391;28;20049;-80
2022/12/06 03:25:30;;;;;;;23.98;3.88;;;13.00;99.90;;;;;;5032614;28;20026;-79
2022/12/06 03:27:59;;;;;;;18.50;2.88;;;13.00;99.90;;;;;;5033123;28;20430;-80
2022/12/06 03:30:31;;;;;;;18.23;3.08;;;12.90;99.90;;;;;;5030779;28;20403;-79
2022/12/06 03:32:58;;;;;;;25.65;3.70;;;13.00;99.90;;;;;;5030245;28;20029;-80
2022/12/06 03:35:27;;;;;;;22.17;3.10;;;13.00;99.90;;;;;;5030827;28;20061;-80
2022/12/06 03:38:05;;;;;;;16.45;3.47;;;12.90;99.90;;;;;;5032018;28;20026;-79
2022/12/06 03:40:34;;;;;;;24.95;3.38;;;12.90;99.90;;;;;;5032244;28;20053;-79
2022/12/06 03:43:00;;;;;;;25.70;3.83;;;13.00;99.90;;;;;;5031835;28;20026;-79
2022/12/06 03:45:42;;;;;;;19.92;3.45;;;12.90;99.90;;;;;;5031914;28;20418;-81
2022/12/06 03:48:21;;;;;;;22.65;3.50;;;12.90;99.90;;;;;;5030373;28;20048;-80
2022/12/06 03:51:05;;;;;;;20.00;2.90;;;12.80;99.90;;;;;;5029769;28;20103;-80
2022/12/06 03:53:32;;;;;;;15.32;2.70;;;12.80;99.90;;;;;;5029400;28;20029;-80
2022/12/06 03:55:58;;;;;;;;;;;12.90;99.90;;;;;;5031776;28;20062;-80
2022/12/06 03:58:24;;;;;;;17.38;2.80;;;12.70;99.90;;;;;;5031435;28;19912;-80
2022/12/06 04:00:51;;;;;;;22.20;3.13;;;12.60;99.90;;;;;;5031316;28;20369;-80
2022/12/06 04:03:18;;;;;;;21.92;3.13;;;12.70;99.90;;;;;;5031203;28;20029;-80
2022/12/06 04:05:47;;;;;;;11.27;2.88;;;12.60;99.90;;;;;;5031903;28;20518;-79
2022/12/06 04:08:13;;;;;;;20.95;3.53;;;12.60;99.90;;;;;;5032312;28;20021;-80
2022/12/06 04:10:39;;;;;;;20.20;3.17;;;12.70;99.90;;;;;;5032388;28;20401;-80
2022/12/06 04:13:05;;;;;;;26.60;3.50;;;12.60;99.90;;;;;;5032306;28;20028;-80
2022/12/06 04:15:37;;;;;;;23.52;3.00;;;12.60;99.90;;;;;;5031893;28;20049;-79
2022/12/06 04:18:14;;;;;;;20.67;3.58;;;12.60;99.90;;;;;;5030758;28;20108;-80
2022/12/06 04:23:49;;;;;;;18.65;3.10;;;12.50;99.90;;;;;;5032610;28;20052;-79
2022/12/06 04:26:18;;;;;;;16.27;2.78;;;12.60;99.90;;;;;;5031316;28;20033;-79
2022/12/06 04:40:12;;;;;;;23.48;2.97;;;12.40;99.90;;;;;;5032402;28;20107;-74
2022/12/06 04:45:25;;;;;;;16.08;3.10;;;12.40;99.90;;;;;;5033107;28;20048;-79
2022/12/06 04:47:55;;;;;;;25.30;3.70;;;12.30;99.90;;;;;;5031268;28;20025;-81
2022/12/06 04:50:21;;;;;;;28.52;3.28;;;12.40;99.90;;;;;;5032684;28;20091;-78
2022/12/06 04:52:47;;;;;;;19.20;3.08;;;12.40;99.90;;;;;;5063058;22;20558;-79
2022/12/06 04:55:17;;;;;;;32.47;3.80;;;12.50;99.90;;;;;;5072767;28;20025;-80
2022/12/06 04:57:43;;;;;;;26.15;3.90;;;12.50;99.90;;;;;;5074605;28;20614;-76
2022/12/06 05:00:10;;;;;;;;;;;12.50;99.90;;;;;;5079408;28;20119;-80
2022/12/06 05:02:36;;;;;;;29.42;3.22;;;12.60;99.90;;;;;;5073669;28;19950;-79
2022/12/06 05:05:04;;;;;;;23.60;3.17;;;12.70;99.90;;;;;;5072750;28;20029;-78
2022/12/06 05:07:30;;;;;;;23.02;3.35;;;12.80;99.90;;;;;;5074047;28;20078;-80
2022/12/06 05:09:56;;;;;;;24.10;4.27;;;12.80;99.90;;;;;;5075606;28;20186;-79
2022/12/06 05:12:23;;;;;;;23.73;3.73;;;12.80;99.90;;;;;;5086683;28;20483;-80
2022/12/06 05:14:50;;;;;;;21.08;3.97;;;12.80;99.90;;;;;;5086437;28;20043;-79
2022/12/06 05:17:17;;;;;;;16.27;3.55;;;12.80;99.90;;;;;;5087233;28;20074;-76
2022/12/06 05:19:43;;;;;;;22.55;3.55;;;12.80;99.90;;;;;;5085076;28;20049;-78
2022/12/06 05:22:09;;;;;;;18.10;3.43;;;12.80;99.90;;;;;;5076033;28;20019;-74
2022/12/06 05:24:36;;;;;;;17.60;3.00;;;12.80;99.90;;;;;;5076510;28;20025;-74
2022/12/06 05:27:02;;;;;;;23.85;3.60;;;12.90;99.90;;;;;;5057351;28;20040;-76
2022/12/06 05:29:28;;;;;;;21.90;3.67;;;12.90;99.90;;;;;;5078209;28;20033;-80
2022/12/06 05:31:54;;;;;;;16.53;3.03;;;12.90;99.90;;;;;;5076392;28;20021;-80
2022/12/06 05:34:20;;;;;;;23.70;3.85;;;13.00;99.90;;;;;;5076284;28;20270;-80
2022/12/06 05:36:46;;;;;;;27.63;3.70;;;13.10;99.90;;;;;;5075917;28;20032;-79
2022/12/06 05:39:12;;;;;;;28.20;3.63;;;13.30;99.90;;;;;;5076518;28;20380;-79
2022/12/06 05:41:39;;;;;;;31.07;4.90;;;13.30;99.90;;;;;;5077136;28;20032;-79
2022/12/06 05:44:05;;;;;;;24.47;3.70;;;13.30;99.90;;;;;;5087471;28;20093;-80
2022/12/06 05:46:31;;;;;;;23.90;3.60;;;13.30;99.90;;;;;;5076185;28;20052;-79
2022/12/06 05:48:59;;;;;;;19.50;3.30;;;13.30;99.90;;;;;;5076052;28;20052;-80
2022/12/06 05:51:26;;;;;;;21.60;3.55;;;13.40;99.90;;;;;;5075317;28;20294;-81
2022/12/06 05:53:55;;;;;;;25.38;3.33;;;13.40;99.90;;;;;;5074434;28;20033;-81
2022/12/06 05:56:21;;;;;;;18.00;3.20;;;13.40;99.90;;;;;;5074296;28;20029;-81
2022/12/06 05:58:47;;;;;;;26.80;4.10;;;13.50;99.90;;;;;;5075519;28;20102;-82
2022/12/06 06:01:16;;;;;;;18.98;3.63;;;13.50;99.90;;;;;;5075585;28;20287;-82
2022/12/06 06:03:42;;;;;;;31.73;3.85;;;13.50;99.90;;;;;;5075149;28;20029;-81
2022/12/06 06:06:14;;;;;;;32.30;4.03;;;13.50;99.90;;;;;;5075910;28;20488;-85
2022/12/06 06:08:41;;;;;;;23.23;3.60;;;13.50;99.90;;;;;;5076001;28;20594;-85
2022/12/06 06:11:31;;;;;;;20.77;3.55;;;13.40;99.90;;;;;;5075581;28;20036;-86
2022/12/06 06:13:57;;;;;;;23.98;3.35;;;13.50;99.90;;;;;;5075637;28;20053;-84
2022/12/06 06:16:27;;;;;;;26.63;3.75;;;13.50;99.90;;;;;;5075351;28;20096;-86
2022/12/06 06:18:55;;;;;;;16.77;3.50;;;13.50;99.90;;;;;;5075463;28;20048;-86
2022/12/06 06:21:25;;;;;;;15.32;2.97;;;13.50;99.90;;;;;;5075583;28;20028;-86
2022/12/06 06:23:50;;;;;;;;;;;13.60;99.90;;;;;;5074006;28;20576;-86
2022/12/06 06:26:19;;;;;;;18.30;2.88;;;13.70;99.90;;;;;;5075012;28;19939;-86
2022/12/06 06:28:47;;;;;;;27.35;4.10;;;13.80;99.90;;;;;;5075119;28;20071;-86
2022/12/06 06:31:14;;;;;;;24.88;3.70;;;13.90;99.90;;;;;;5074556;28;20085;-85
2022/12/06 06:33:44;;;;;;;34.05;3.65;;;13.90;99.90;;;;;;5074411;28;20017;-84
2022/12/06 06:36:10;;;;;;;24.20;3.40;;;14.00;99.90;;;;;;5074426;28;20028;-85
2022/12/06 06:38:36;;;;;;;20.13;4.00;;;14.00;99.90;;;;;;5074409;28;20029;-85
2022/12/06 06:41:04;;;;;;;32.13;3.33;;;13.90;99.90;;;;;;5075079;28;20476;-85
2022/12/06 06:43:32;;;;;;;21.40;3.45;;;13.90;99.90;;;;;;5074282;28;20385;-85
2022/12/06 06:46:00;;;;;;;23.88;2.92;;;13.90;99.90;;;;;;5077583;28;20385;-85
2022/12/06 06:48:29;;;;;;;21.50;3.78;;;13.80;99.90;;;;;;5074023;28;20419;-83
2022/12/06 06:51:00;;;;;;;20.23;3.80;;;13.90;99.90;;;;;;5073507;28;20032;-83
2022/12/06 06:53:27;;;;;;;26.55;4.00;;;13.90;99.90;;;;;;5073931;28;20063;-84
2022/12/06 06:55:53;;;;;;;15.23;3.45;;;13.90;99.90;;;;;;5074280;28;20370;-83
2022/12/06 06:58:20;;;;;;;;;;;14.00;99.90;;;;;;5074316;28;20028;-84
2022/12/06 07:00:50;;;;;;;;;;;14.10;99.90;;;;;;5075675;28;19904;-84
2022/12/06 07:03:19;;;;;;;26.42;4.72;;;14.30;99.90;;;;;;5075942;28;19948;-84
2022/12/06 07:05:51;;;;;;;23.02;4.00;;;14.60;99.90;;;;;;5071920;28;20036;-83
2022/12/06 07:08:19;;;;;;;21.88;4.25;;;14.70;99.90;;;;;;5073203;28;20063;-84
2022/12/06 07:10:47;;;;;;;21.67;3.58;;;14.60;99.90;;;;;;5073399;28;20115;-82
2022/12/06 07:13:17;;;;;;;28.85;4.57;;;14.60;99.90;;;;;;5075720;28;20034;-82
2022/12/06 07:15:44;;;;;;;26.02;4.47;;;14.60;99.90;;;;;;5079671;28;20021;-83
2022/12/06 07:18:11;;;;;;;29.55;3.50;;;14.60;99.90;;;;;;5075709;28;20025;-86
2022/12/06 07:20:38;;;;;;;18.63;3.35;;;14.60;99.90;;;;;;5075134;28;20453;-86
2022/12/06 07:23:04;;;;;;;;;;;14.70;99.90;;;;;;5074855;28;20049;-87
2022/12/06 07:25:33;;;;;;;16.45;3.30;;;15.00;99.90;;;;;;5074248;28;20356;-84
2022/12/06 07:28:00;;;;;;;24.85;3.67;;;15.10;99.90;;;;;;5073081;28;20028;-84
2022/12/06 07:30:33;;;;;;;24.15;3.67;;;15.20;99.90;;;;;;5074502;28;20039;-84
2022/12/06 07:33:01;;;;;;;22.70;3.55;;;15.20;99.90;;;;;;5074023;28;20025;-83
2022/12/06 07:35:28;;;;;;;23.33;4.43;;;15.30;99.90;;;;;;5071635;28;20391;-83
2022/12/06 07:37:54;;;;;;;22.80;3.90;;;15.50;99.90;;;;;;5091722;28;20108;-82
2022/12/06 07:40:23;;;;;;;29.35;3.88;;;15.70;99.90;;;;;;5091588;28;20082;-81
2022/12/06 07:45:36;;;;;;;;;;;15.50;99.90;;;;;;5091614;28;20156;-80
2022/12/06 07:48:05;;;;;;;24.48;3.05;;;15.30;99.90;;;;;;5090572;28;19934;-82
2022/12/06 07:50:34;;;;;;;18.58;3.75;;;15.10;99.90;;;;;;5091265;28;20036;-82
2022/12/06 07:53:01;;;;;;;18.65;3.60;;;15.10;99.90;;;;;;5090073;28;20047;-82
2022/12/06 07:55:29;;;;;;;;;;;15.10;99.90;;;;;;5090937;28;20158;-82
2022/12/06 07:58:01;;;;;;;23.02;3.53;;;15.10;99.90;;;;;;5090601;28;20271;-81
2022/12/06 08:00:27;;;;;;;23.47;3.47;;;15.10;99.90;;;;;;5091225;28;20035;-83
2022/12/06 08:02:53;;;;;;;19.08;3.10;;;15.10;99.90;;;;;;5073694;28;20043;-82
2022/12/06 08:05:20;;;;;;;24.97;3.57;;;15.00;99.90;;;;;;5090451;28;20032;-84
2022/12/06 08:07:46;;;;;;;24.17;3.55;;;15.00;99.90;;;;;;5090931;28;20089;-83
2022/12/06 08:10:13;;;;;;;22.85;3.45;;;15.00;99.90;;;;;;5073301;28;20036;-83
2022/12/06 08:12:39;;;;;;;29.27;3.80;;;15.10;99.90;;;;;;5090810;28;20020;-83
2022/12/06 08:15:11;;;;;;;21.27;3.55;;;15.00;99.90;;;;;;5090553;28;20126;-84
2022/12/06 08:17:42;;;;;;;23.25;3.63;;;14.90;99.90;;;;;;5090845;28;20161;-85
2022/12/06 08:20:09;;;;;;;20.73;3.33;;;14.90;99.90;;;;;;5073548;28;20076;-83
2022/12/06 08:22:37;;;;;;;18.73;3.17;;;14.90;99.90;;;;;;5091233;28;20036;-84
2022/12/06 08:25:03;;;;;;;;;;;14.80;99.90;;;;;;5091189;28;20059;-85
2022/12/06 08:27:29;;;;;;;23.98;3.92;;;14.90;99.90;;;;;;5081437;28;19952;-86
2022/12/06 08:29:56;;;;;;;27.87;4.00;;;15.00;99.90;;;;;;5066723;28;20028;-85
2022/12/06 08:32:22;;;;;;;21.75;3.92;;;15.00;99.90;;;;;;5071857;28;20626;-85
2022/12/06 08:34:49;;;;;;;26.48;3.50;;;15.00;99.90;;;;;;5071661;28;20029;-85
2022/12/06 08:37:15;;;;;;;21.25;3.33;;;15.10;99.90;;;;;;5072633;28;20024;-85
2022/12/06 08:39:44;;;;;;;32.37;3.90;;;15.10;99.90;;;;;;5070475;28;20455;-86
2022/12/06 08:42:10;;;;;;;23.50;3.60;;;15.10;99.90;;;;;;5071864;28;20356;-85
2022/12/06 08:44:39;;;;;;;19.07;3.50;;;15.00;99.90;;;;;;5071306;28;20103;-86
2022/12/06 08:47:06;;;;;;;21.55;3.33;;;15.10;99.90;;;;;;5075920;28;20266;-86
2022/12/06 08:49:32;;;;;;;22.70;2.87;;;15.10;99.90;;;;;;5075356;28;20020;-86
2022/12/06 08:52:00;;;;;;;18.27;3.28;;;15.20;99.90;;;;;;5076640;28;20339;-85
2022/12/06 08:54:34;;;;;;;;;;;15.20;99.90;;;;;;5077206;28;20023;-85
2022/12/06 08:57:00;;;;;;;22.75;3.38;;;15.20;99.90;;;;;;5076416;28;19911;-85
2022/12/06 08:59:26;;;;;;;31.90;4.00;;;15.30;99.90;;;;;;5075711;28;20017;-86
2022/12/06 09:01:52;;;;;;;28.90;3.80;;;15.40;99.90;;;;;;5075937;28;20265;-86
2022/12/06 09:04:19;;;;;;;16.80;3.30;;;15.50;99.90;;;;;;5074257;28;20107;-87
2022/12/06 09:06:46;;;;;;;23.67;3.05;;;15.60;99.90;;;;;;5073954;28;20085;-87
2022/12/06 09:09:15;;;;;;;23.42;3.35;;;15.60;99.90;;;;;;5075392;28;20064;-89
2022/12/06 09:11:44;;;;;;;23.50;2.78;;;15.60;99.90;;;;;;5075848;28;20023;-87
2022/12/06 09:14:15;;;;;;;28.90;3.00;;;15.70;99.90;;;;;;5075908;28;20036;-88
2022/12/06 09:16:44;;;;;;;17.10;3.75;;;15.70;99.90;;;;;;5074508;28;20036;-87
2022/12/06 09:19:11;;;;;;;19.25;3.78;;;15.80;99.90;;;;;;5075243;28;20102;-88
2022/12/06 09:21:41;;;;;;;;;;;15.90;99.90;;;;;;5076415;28;20063;-89
2022/12/06 09:24:18;;;;;;;16.17;4.10;;;16.00;99.90;;;;;;5075976;28;19939;-89
2022/12/06 09:26:46;;;;;;;26.73;3.63;;;16.10;99.90;;;;;;5075914;28;20025;-90
2022/12/06 09:29:14;;;;;;;23.65;3.75;;;16.20;99.90;;;;;;5074745;28;20399;-89
2022/12/06 09:31:40;;;;;;;20.52;3.50;;;16.40;99.90;;;;;;5074171;28;20024;-89
2022/12/06 09:34:09;;;;;;;18.75;3.20;;;16.60;99.90;;;;;;5075957;28;20031;-88
2022/12/06 09:36:50;;;;;;;19.48;2.83;;;16.80;99.90;;;;;;5075588;28;20035;-89
2022/12/06 09:39:26;;;;;;;31.40;4.05;;;17.20;99.90;;;;;;5076315;28;20154;-89
2022/12/06 09:42:37;;;;;;;21.90;2.78;;;17.30;99.90;;;;;;5076308;28;20025;-90
2022/12/06 09:45:18;;;;;;;16.88;2.95;;;17.50;99.90;;;;;;5075018;28;20553;-88
2022/12/06 09:47:57;;;;;;;26.23;2.97;;;17.60;99.90;;;;;;5076478;28;20021;-90
2022/12/06 09:50:46;;;;;;;20.63;2.63;;;17.40;99.90;;;;;;5075695;28;20036;-90
2022/12/06 09:53:44;;;;;;;16.30;2.53;;;17.40;99.90;;;;;;5075964;28;20048;-89
2022/12/06 09:56:42;;;;;;;20.13;3.00;;;17.60;99.90;;;;;;5074487;28;20412;-90
2022/12/06 09:59:44;;;;;;;20.83;3.22;;;17.60;99.90;;;;;;5074893;28;20033;-89
2022/12/06 10:02:36;;;;;;;22.90;2.97;;;17.80;99.90;;;;;;5074356;28;20110;-90
2022/12/06 10:05:49;;;;;;;15.98;2.75;;;18.00;99.90;;;;;;5075153;28;20021;-90
2022/12/06 10:08:28;;;;;;;19.70;3.08;;;18.10;99.90;;;;;;5076485;28;20154;-90
2022/12/06 10:11:10;;;;;;;19.05;2.83;;;18.10;99.90;;;;;;5075642;28;20051;-90
2022/12/06 10:14:05;;;;;;;20.60;3.08;;;17.80;99.90;;;;;;5076266;28;20457;-90
2022/12/06 10:17:02;;;;;;;24.55;3.55;;;17.40;99.90;;;;;;5076245;28;20021;-88
2022/12/06 10:20:16;;;;;;;20.88;2.90;;;17.20;99.90;;;;;;5074934;28;20127;-90
2022/12/06 10:23:36;;;;;;;23.20;3.40;;;17.20;99.90;;;;;;5070204;28;20044;-90
2022/12/06 10:26:18;;;;;;;16.95;2.22;;;17.30;99.90;;;;;;5037737;28;20059;-89
2022/12/06 10:28:47;;;;;;;13.00;2.95;;;17.40;99.90;;;;;;5054824;28;20065;-91
2022/12/06 10:31:30;;;;;;;18.83;2.45;;;17.50;99.90;;;;;;5053837;28;20033;-91
2022/12/06 10:34:05;;;;;;;22.80;2.85;;;17.40;99.90;;;;;;5055637;28;20382;-88
2022/12/06 10:36:38;;;;;;;20.73;3.10;;;17.40;99.90;;;;;;5035752;28;20021;-90
2022/12/06 10:39:16;;;;;;;22.67;2.45;;;17.40;99.90;;;;;;5036904;28;20036;-89
2022/12/06 10:42:06;;;;;;;22.30;2.97;;;17.40;99.90;;;;;;5036939;28;20029;-90
2022/12/06 10:44:47;;;;;;;20.15;2.65;;;17.40;99.90;;;;;;5019906;28;20025;-90
2022/12/06 10:47:27;;;;;;;18.73;3.30;;;17.40;99.90;;;;;;5053369;28;20147;-90
2022/12/06 10:50:21;;;;;;;13.95;3.08;;;17.30;99.90;;;;;;5052042;28;20051;-89
2022/12/06 10:53:16;;;;;;;23.42;4.43;;;17.20;99.90;;;;;;5051751;28;20072;-88
2022/12/06 10:56:01;;;;;;;16.75;2.65;;;17.10;99.90;;;;;;5033163;28;20037;-88
2022/12/06 10:58:36;;;;;;;18.65;3.20;;;17.00;99.90;;;;;;5052106;28;20138;-89
2022/12/06 11:01:17;;;;;;;20.67;3.67;;;17.00;99.90;;;;;;5053912;28;20113;-89
2022/12/06 11:04:04;;;;;;;16.55;2.80;;;17.00;99.90;;;;;;5069451;28;20036;-90
2022/12/06 11:06:33;;;;;;;15.65;3.70;;;17.10;99.90;;;;;;5069499;28;20021;-88
2022/12/06 11:09:43;;;;;;;15.55;2.90;;;17.30;99.90;;;;;;5050990;28;20029;-89
2022/12/06 11:12:28;;;;;;;17.30;3.25;;;17.60;99.90;;;;;;5050161;28;20029;-90
2022/12/06 11:15:20;;;;;;;14.75;2.88;;;18.00;99.90;;;;;;5068980;28;20028;-85
2022/12/06 11:17:55;;;;;;;16.42;3.20;;;18.10;99.90;;;;;;5083444;28;20033;-90
2022/12/06 11:20:27;;;;;;;22.65;3.55;;;18.10;99.90;;;;;;5093164;28;20044;-89
2022/12/06 11:23:16;;;;;;;19.63;3.10;;;18.10;99.90;;;;;;5088836;28;20578;-89
2022/12/06 11:26:05;;;;;;;20.95;3.33;;;18.00;99.90;;;;;;5072593;28;20044;-89
2022/12/06 11:28:37;;;;;;;17.17;3.60;;;18.00;99.90;;;;;;5074122;28;20134;-91
2022/12/06 11:31:31;;;;;;;19.33;3.95;;;18.00;99.90;;;;;;5074554;28;20033;-90
2022/12/06 11:33:59;;;;;;;24.17;4.13;;;18.00;99.90;;;;;;5074296;28;20028;-91
2022/12/06 11:36:28;;;;;;;17.88;3.78;;;18.10;99.90;;;;;;5051348;28;20037;-90
2022/12/06 11:38:54;;;;;;;21.10;4.55;;;18.00;99.90;;;;;;5051688;28;20060;-89
2022/12/06 11:41:26;;;;;;;19.40;3.92;;;18.00;99.90;;;;;;5035149;28;20396;-90
2022/12/06 11:43:54;;;;;;;22.20;3.35;;;18.00;99.90;;;;;;5035300;28;20488;-89
2022/12/06 11:46:22;;;;;;;27.45;3.97;;;18.00;99.90;;;;;;5038110;28;20037;-90
2022/12/06 11:48:51;;;;;;;17.67;2.70;;;17.90;99.90;;;;;;5033467;28;20490;-88
2022/12/06 11:51:22;;;;;;;30.88;3.33;;;17.90;99.90;;;;;;5051807;28;20029;-89
2022/12/06 11:54:34;;;;;;;23.90;2.95;;;17.80;99.90;;;;;;5050941;28;20045;-90
2022/12/06 11:57:13;;;;;;;23.33;3.17;;;17.80;99.90;;;;;;5008149;28;20036;-87
2022/12/06 11:59:39;;;;;;;19.40;2.83;;;17.90;99.90;;;;;;5051329;28;20108;-88
2022/12/06 12:02:06;;;;;;;24.17;3.33;;;18.10;99.90;;;;;;5051546;28;20492;-90
2022/12/06 12:04:41;;;;;;;;;;;18.10;99.90;;;;;;5034911;28;20029;-90
2022/12/06 12:07:26;;;;;;;22.08;3.20;;;18.40;99.90;;;;;;5056039;28;19912;-89
2022/12/06 12:10:03;;;;;;;24.58;2.88;;;18.50;99.90;;;;;;5053589;28;20071;-90
2022/12/06 12:15:31;;;;;;;22.92;2.95;;;18.30;99.90;;;;;;5080629;28;20058;-88
2022/12/06 12:18:00;;;;;;;27.42;3.33;;;18.30;99.90;;;;;;5073539;28;20473;-89
2022/12/06 12:20:36;;;;;;;24.63;3.00;;;18.30;99.90;;;;;;5076903;28;20088;-88
2022/12/06 12:23:31;;;;;;;29.08;3.40;;;18.30;99.90;;;;;;5076676;28;20023;-88
2022/12/06 12:26:16;;;;;;;22.05;2.80;;;18.00;99.90;;;;;;5075026;22;20060;-88
2022/12/06 12:28:44;;;;;;;22.48;2.80;;;18.10;99.90;;;;;;5034820;28;20017;-87
2022/12/06 12:31:20;;;;;;;17.02;2.78;;;18.10;99.90;;;;;;5035460;28;20040;-87
2022/12/06 12:33:46;;;;;;;20.70;3.35;;;18.10;99.90;;;;;;5035052;28;20063;-87
2022/12/06 12:36:25;;;;;;;21.27;2.90;;;18.10;99.90;;;;;;5055118;28;20048;-87
2022/12/06 12:38:59;;;;;;;18.85;3.10;;;18.20;99.90;;;;;;5053898;28;20079;-88
2022/12/06 12:41:33;;;;;;;22.00;3.30;;;18.40;99.90;;;;;;5034980;28;20029;-88
2022/12/06 12:44:15;;;;;;;21.15;3.00;;;18.40;99.90;;;;;;5052837;28;20534;-88
2022/12/06 12:46:44;;;;;;;19.50;3.30;;;18.30;99.90;;;;;;5059975;28;20059;-88
2022/12/06 12:49:28;;;;;;;17.80;2.90;;;18.30;99.90;;;;;;5059872;28;20540;-88
2022/12/06 12:51:56;;;;;;;19.63;2.60;;;18.20;99.90;;;;;;5055101;28;20424;-87
2022/12/06 12:54:35;;;;;;;17.90;2.58;;;18.20;99.90;;;;;;5053496;28;20021;-88
2022/12/06 12:57:11;;;;;;;15.23;2.60;;;18.20;99.90;;;;;;5053030;28;20369;-88
2022/12/06 12:59:41;;;;;;;19.30;3.45;;;18.30;99.90;;;;;;5034856;28;20036;-89
2022/12/06 13:02:21;;;;;;;27.67;3.55;;;18.30;99.90;;;;;;5051818;28;20027;-88
2022/12/06 13:04:58;;;;;;;24.67;3.63;;;18.30;99.90;;;;;;5033231;28;20037;-88
2022/12/06 13:07:35;;;;;;;20.38;2.35;;;18.40;99.90;;;;;;5051979;28;20469;-84
2022/12/06 13:10:27;;;;;;;21.88;3.15;;;18.50;99.90;;;;;;5121680;22;20025;-84
2022/12/06 13:13:17;;;;;;;21.40;3.00;;;18.40;99.90;;;;;;5000488;28;20053;-88
2022/12/06 13:15:54;;;;;;;19.23;3.20;;;18.20;99.90;;;;;;5046570;22;20103;-90
2022/12/06 13:18:38;;;;;;;18.65;2.83;;;18.30;99.90;;;;;;5052690;28;20359;-89
2022/12/06 13:21:25;;;;;;;15.40;3.20;;;18.30;99.90;;;;;;5053001;28;20476;-85
2022/12/06 13:24:19;;;;;;;21.00;3.05;;;18.40;99.90;;;;;;5035148;28;20056;-88
2022/12/06 13:26:56;;;;;;;18.75;2.72;;;18.50;99.90;;;;;;5038962;28;20112;-89
2022/12/06 13:29:31;;;;;;;21.70;3.20;;;18.70;99.90;;;;;;5051325;28;20048;-89
2022/12/06 13:32:07;;;;;;;21.80;2.80;;;18.50;99.90;;;;;;5052840;28;20033;-89
2022/12/06 13:34:48;;;;;;;27.27;3.17;;;18.50;99.90;;;;;;5056653;28;20032;-89